createdAt,value
2023-05-22T00:02:18.511Z,99667.25
2023-05-22T00:06:22.161Z,99665.69
2023-05-22T00:10:25.293Z,99664.94
2023-05-22T00:14:28.355Z,99668.56
2023-05-22T00:18:32.818Z,99665.22
2023-05-22T00:22:36.447Z,99664.34
2023-05-22T00:26:39.545Z,99668.06
2023-05-22T00:30:42.649Z,99669.97
2023-05-22T00:34:47.152Z,99668.28
2023-05-22T00:38:50.915Z,99655.03
2023-05-22T00:42:54.275Z,99656.06
2023-05-22T00:46:57.783Z,99659.78
2023-05-22T00:51:03.451Z,99651.91
2023-05-22T00:55:08.864Z,99648.47
2023-05-22T00:59:12.143Z,99647.72
2023-05-22T01:03:16.166Z,99648.75
2023-05-22T01:07:21.679Z,99651.50
2023-05-22T01:11:29.753Z,99649.88
2023-05-22T01:15:41.065Z,99653.56
2023-05-22T01:20:01.599Z,99658.06
2023-05-22T01:24:37.385Z,99657.41
2023-05-22T01:29:02.149Z,99662.91
2023-05-22T01:33:09.202Z,99664.81
2023-05-22T01:37:14.470Z,99669.34
2023-05-22T01:41:18.740Z,99667.69
2023-05-22T01:45:22.575Z,99665.16
2023-05-22T01:49:27.787Z,99670.66
2023-05-22T01:53:38.721Z,99669.00
2023-05-22T01:57:50.340Z,99681.47
2023-05-22T02:01:55.583Z,99678.03
2023-05-22T02:06:03.375Z,99669.31
2023-05-22T02:10:10.444Z,99668.63
2023-05-22T02:14:13.916Z,99667.00
2023-05-22T02:18:16.990Z,99665.41
2023-05-22T02:22:22.204Z,99668.13
2023-05-22T02:26:25.531Z,99665.59
2023-05-22T02:30:28.657Z,99661.22
2023-05-22T02:34:34.989Z,99662.22
2023-05-22T02:38:39.536Z,99663.22
2023-05-22T02:42:43.071Z,99655.34
2023-05-22T02:46:47.549Z,99650.16
2023-05-22T02:50:50.669Z,99652.00
2023-05-22T02:54:55.105Z,99643.16
2023-05-22T02:58:59.209Z,99646.84
2023-05-22T03:03:02.425Z,99654.97
2023-05-22T03:07:07.275Z,99655.06
2023-05-22T03:11:11.912Z,99654.25
2023-05-22T03:15:15.038Z,99657.97
2023-05-22T03:19:19.605Z,99664.25
2023-05-22T03:23:22.660Z,99656.44
2023-05-22T03:27:27.278Z,99652.91
2023-05-22T03:31:32.542Z,99659.19
2023-05-22T03:35:44.568Z,99657.38
2023-05-22T03:39:48.062Z,99660.00
2023-05-22T03:44:05.283Z,99663.50
2023-05-22T03:48:10.735Z,99664.34
2023-05-22T03:52:13.904Z,99669.59
2023-05-22T03:56:17.704Z,99666.94
2023-05-22T04:00:26.970Z,99678.50
2023-05-22T04:04:30.233Z,99674.91
2023-05-22T04:08:33.450Z,99674.91
2023-05-22T04:12:36.536Z,99672.25
2023-05-22T04:16:40.963Z,99675.81
2023-05-22T04:20:43.983Z,99670.47
2023-05-22T04:24:49.182Z,99677.53
2023-05-22T04:28:52.266Z,99669.53
2023-05-22T04:32:56.780Z,99660.66
2023-05-22T04:37:00.137Z,99656.16
2023-05-22T04:41:03.467Z,99663.13
2023-05-22T04:45:08.172Z,99668.38
2023-05-22T04:49:12.565Z,99662.06
2023-05-22T04:53:15.726Z,99667.31
2023-05-22T04:57:18.906Z,99668.97
2023-05-22T05:01:22.777Z,99664.44
2023-05-22T05:05:27.350Z,99661.63
2023-05-22T05:09:30.889Z,99664.97
2023-05-22T05:13:34.151Z,99667.41
2023-05-22T05:17:37.383Z,99673.38
2023-05-22T05:21:42.312Z,99674.88
2023-05-22T05:25:45.623Z,99672.72
2023-05-22T05:29:50.150Z,99669.63
2023-05-22T05:34:01.805Z,99677.16
2023-05-22T05:38:25.476Z,99667.59
2023-05-22T05:42:29.669Z,99667.81
2023-05-22T05:46:36.342Z,99663.59
2023-05-22T05:50:39.690Z,99673.59
2023-05-22T05:54:47.564Z,99669.34
2023-05-22T05:58:55.193Z,99668.69
2023-05-22T06:03:25.685Z,99670.53
2023-05-22T06:07:44.583Z,99660.09
2023-05-22T06:11:49.165Z,99658.56
2023-05-22T06:15:52.263Z,99650.78
2023-05-22T06:19:55.366Z,99655.19
2023-05-22T06:23:58.837Z,99652.53
2023-05-22T06:28:03.400Z,99648.16
2023-05-22T06:32:07.343Z,99646.75
2023-05-22T06:36:12.626Z,99646.97
2023-05-22T06:40:15.879Z,99641.72
2023-05-22T06:44:32.817Z,99649.13
2023-05-22T06:48:41.989Z,99653.81
2023-05-22T06:52:53.708Z,99658.41
2023-05-22T06:56:57.552Z,99662.88
2023-05-22T07:01:05.095Z,99658.41
2023-05-22T07:05:17.189Z,99659.75
2023-05-22T07:09:28.545Z,99661.59
2023-05-22T07:13:32.192Z,99652.66
2023-05-22T07:17:36.725Z,99645.09
2023-05-22T07:21:40.095Z,99654.16
2023-05-22T07:25:44.480Z,99645.53
2023-05-22T07:29:49.696Z,99644.59
2023-05-22T07:33:56.086Z,99640.03
2023-05-22T07:37:59.280Z,99647.53
2023-05-22T07:42:03.017Z,99638.97
2023-05-22T07:46:09.463Z,99641.19
2023-05-22T07:50:21.963Z,99632.41
2023-05-22T07:54:25.262Z,99620.13
2023-05-22T07:58:28.485Z,99622.41
2023-05-22T08:02:33.732Z,99629.13
2023-05-22T08:06:39.607Z,99624.88
2023-05-22T08:11:01.770Z,99625.75
2023-05-22T08:15:06.956Z,99622.31
2023-05-22T08:19:11.125Z,99628.06
2023-05-22T08:23:15.692Z,99623.69
2023-05-22T08:27:18.737Z,99620.19
2023-05-22T08:31:22.902Z,99614.97
2023-05-22T08:35:25.964Z,99615.06
2023-05-22T08:39:31.350Z,99614.50
2023-05-22T08:43:34.460Z,99615.31
2023-05-22T08:47:39.017Z,99617.44
2023-05-22T08:51:43.369Z,99607.66
2023-05-22T08:55:47.918Z,99610.53
2023-05-22T08:59:51.752Z,99611.56
2023-05-22T09:03:55.559Z,99604.03
2023-05-22T09:08:08.451Z,99601.91
2023-05-22T09:12:20.983Z,99600.84
2023-05-22T09:16:27.110Z,99598.63
2023-05-22T09:20:30.217Z,99598.84
2023-05-22T09:24:39.489Z,99597.06
2023-05-22T09:28:44.473Z,99597.03
2023-05-22T09:32:49.936Z,99598.31
2023-05-22T09:36:55.132Z,99595.09
2023-05-22T09:40:58.504Z,99594.78
2023-05-22T09:45:05.966Z,99588.88
2023-05-22T09:49:16.523Z,99595.72
2023-05-22T09:53:37.944Z,99592.03
2023-05-22T09:57:43.961Z,99591.72
2023-05-22T10:01:49.702Z,99584.94
2023-05-22T10:05:55.789Z,99582.78
2023-05-22T10:10:05.426Z,99585.84
2023-05-22T10:14:09.805Z,99580.00
2023-05-22T10:18:16.026Z,99573.38
2023-05-22T10:22:21.326Z,99559.97
2023-05-22T10:26:25.050Z,99560.41
2023-05-22T10:30:33.934Z,99557.19
2023-05-22T10:35:12.870Z,99552.84
2023-05-22T10:39:32.402Z,99552.84
2023-05-22T10:43:40.122Z,99543.09
2023-05-22T10:47:43.712Z,99540.94
2023-05-22T10:51:48.389Z,99540.91
2023-05-22T10:55:52.780Z,99541.94
2023-05-22T11:00:09.685Z,99534.13
2023-05-22T11:04:13.429Z,99527.41
2023-05-22T11:08:39.549Z,99517.94
2023-05-22T11:12:42.728Z,99524.44
2023-05-22T11:16:45.833Z,99519.78
2023-05-22T11:20:49.170Z,99513.38
2023-05-22T11:24:53.599Z,99510.25
2023-05-22T11:28:56.865Z,99503.03
2023-05-22T11:33:01.222Z,99500.88
2023-05-22T11:37:04.921Z,99491.47
2023-05-22T11:41:10.075Z,99486.66
2023-05-22T11:45:13.325Z,99487.06
2023-05-22T11:49:17.350Z,99484.22
2023-05-22T11:53:21.167Z,99481.66
2023-05-22T11:57:25.582Z,99483.50
2023-05-22T12:01:28.629Z,99481.53
2023-05-22T12:05:33.244Z,99471.72
2023-05-22T12:09:36.431Z,99469.53
2023-05-22T12:13:41.353Z,99466.34
2023-05-22T12:17:44.765Z,99468.56
2023-05-22T12:21:47.795Z,99460.41
2023-05-22T12:25:59.014Z,99457.44
2023-05-22T12:30:10.438Z,99465.81
2023-05-22T12:34:14.169Z,99468.28
2023-05-22T12:38:17.207Z,99451.28
2023-05-22T12:42:20.373Z,99457.31
2023-05-22T12:46:24.757Z,99469.91
2023-05-22T12:50:27.800Z,99461.66
2023-05-22T12:54:31.541Z,99458.44
2023-05-22T12:58:34.635Z,99461.66
2023-05-22T13:02:39.099Z,99454.38
2023-05-22T13:06:42.307Z,99455.00
2023-05-22T13:10:45.534Z,99448.59
2023-05-22T13:14:48.875Z,99448.47
2023-05-22T13:18:53.326Z,99446.38
2023-05-22T13:22:56.425Z,99445.13
2023-05-22T13:26:59.485Z,99431.31
2023-05-22T13:31:02.532Z,99437.50
2023-05-22T13:35:07.829Z,99429.59
2023-05-22T13:39:10.952Z,99426.16
2023-05-22T13:43:14.495Z,99431.22
2023-05-22T13:47:17.851Z,99425.41
2023-05-22T13:51:22.326Z,99420.72
2023-05-22T13:55:25.577Z,99421.13
2023-05-22T13:59:28.911Z,99415.19
2023-05-22T14:03:32.087Z,99408.16
2023-05-22T14:07:36.580Z,99412.59
2023-05-22T14:11:39.736Z,99405.44
2023-05-22T14:15:43.394Z,99400.50
2023-05-22T14:19:46.477Z,99396.94
2023-05-22T14:23:50.970Z,99385.59
2023-05-22T14:27:54.028Z,99374.88
2023-05-22T14:32:04.146Z,99381.03
2023-05-22T14:36:07.473Z,99379.81
2023-05-22T14:40:12.468Z,99373.38
2023-05-22T14:44:15.555Z,99368.47
2023-05-22T14:48:18.665Z,99372.56
2023-05-22T14:52:21.739Z,99373.91
2023-05-22T14:56:26.646Z,99376.09
2023-05-22T15:00:29.846Z,99375.69
2023-05-22T15:04:32.905Z,99363.63
2023-05-22T15:08:36.582Z,99363.25
2023-05-22T15:12:41.178Z,99368.50
2023-05-22T15:16:44.318Z,99368.38
2023-05-22T15:20:47.581Z,99352.78
2023-05-22T15:25:05.341Z,99351.53
2023-05-22T15:29:09.901Z,99344.88
2023-05-22T15:33:13.192Z,99350.78
2023-05-22T15:37:16.293Z,99343.84
2023-05-22T15:41:19.452Z,99342.59
2023-05-22T15:45:23.877Z,99343.09
2023-05-22T15:49:29.341Z,99342.44
2023-05-22T15:53:34.020Z,99328.16
2023-05-22T15:57:38.146Z,99329.38
2023-05-22T16:01:42.583Z,99328.03
2023-05-22T16:05:47.013Z,99321.19
2023-05-22T16:09:50.350Z,99337.75
2023-05-22T16:13:53.524Z,99339.94
2023-05-22T16:17:58.132Z,99338.44
2023-05-22T16:22:01.359Z,99337.81
2023-05-22T16:26:04.461Z,99333.59
2023-05-22T16:30:08.735Z,99340.34
2023-05-22T16:34:13.390Z,99345.22
2023-05-22T16:38:16.440Z,99350.84
2023-05-22T16:42:19.467Z,99346.13
2023-05-22T16:46:22.672Z,99345.59
2023-05-22T16:50:27.334Z,99356.63
2023-05-22T16:54:30.342Z,99357.84
2023-05-22T16:58:34.097Z,99359.75
2023-05-22T17:02:37.553Z,99360.97
2023-05-22T17:06:42.315Z,99354.03
2023-05-22T17:10:45.359Z,99362.34
2023-05-22T17:14:48.574Z,99359.13
2023-05-22T17:18:54.155Z,99354.25
2023-05-22T17:22:59.287Z,99357.28
2023-05-22T17:27:03.461Z,99362.16
2023-05-22T17:31:07.128Z,99355.47
2023-05-22T17:35:10.217Z,99359.34
2023-05-22T17:39:14.601Z,99348.88
2023-05-22T17:43:19.095Z,99362.78
2023-05-22T17:47:22.217Z,99354.34
2023-05-22T17:51:25.337Z,99354.13
2023-05-22T17:55:29.728Z,99345.69
2023-05-22T17:59:33.798Z,99357.13
2023-05-22T18:03:36.930Z,99347.06
2023-05-22T18:07:39.971Z,99344.00
2023-05-22T18:11:44.449Z,99334.59
2023-05-22T18:15:49.023Z,99342.44
2023-05-22T18:19:52.093Z,99347.28
2023-05-22T18:23:56.115Z,99345.94
2023-05-22T18:28:00.659Z,99350.00
2023-05-22T18:32:03.905Z,99354.06
2023-05-22T18:36:07.072Z,99360.06
2023-05-22T18:40:11.461Z,99340.06
2023-05-22T18:44:15.892Z,99350.78
2023-05-22T18:48:20.152Z,99340.69
2023-05-22T18:52:25.761Z,99348.41
2023-05-22T18:56:28.808Z,99352.59
2023-05-22T19:00:33.355Z,99357.69
2023-05-22T19:04:36.406Z,99355.41
2023-05-22T19:08:40.418Z,99363.16
2023-05-22T19:12:43.491Z,99367.03
2023-05-22T19:16:48.030Z,99374.69
2023-05-22T19:20:51.154Z,99367.97
2023-05-22T19:24:54.183Z,99357.59
2023-05-22T19:28:59.379Z,99368.03
2023-05-22T19:33:04.477Z,99373.22
2023-05-22T19:37:09.405Z,99365.63
2023-05-22T19:41:12.466Z,99374.16
2023-05-22T19:45:15.898Z,99372.78
2023-05-22T19:49:20.337Z,99365.84
2023-05-22T19:53:23.422Z,99367.00
2023-05-22T19:57:27.155Z,99359.19
2023-05-22T20:01:30.501Z,99369.50
2023-05-22T20:05:35.003Z,99357.47
2023-05-22T20:09:38.428Z,99358.78
2023-05-22T20:13:41.449Z,99356.44
2023-05-22T20:17:47.621Z,99362.91
2023-05-22T20:21:52.544Z,99366.91
2023-05-22T20:25:55.556Z,99370.91
2023-05-22T20:30:00.075Z,99378.53
2023-05-22T20:34:04.687Z,99383.34
2023-05-22T20:38:09.877Z,99382.84
2023-05-22T20:42:13.174Z,99387.41
2023-05-22T20:46:16.355Z,99376.94
2023-05-22T20:50:19.643Z,99377.34
2023-05-22T20:54:24.053Z,99377.63
2023-05-22T20:58:27.400Z,99385.06
2023-05-22T21:02:31.052Z,99389.16
2023-05-22T21:06:34.105Z,99390.59
2023-05-22T21:10:38.661Z,99397.94
2023-05-22T21:14:43.477Z,99387.53
2023-05-22T21:18:46.838Z,99391.47
2023-05-22T21:22:49.927Z,99390.94
2023-05-22T21:26:54.387Z,99398.28
2023-05-22T21:30:57.515Z,99389.75
2023-05-22T21:35:00.602Z,99391.00
2023-05-22T21:39:03.685Z,99407.56
2023-05-22T21:43:08.050Z,99405.44
2023-05-22T21:47:11.090Z,99399.47
2023-05-22T21:51:14.152Z,99398.22
2023-05-22T21:55:17.258Z,99394.16
2023-05-22T21:59:21.781Z,99392.66
2023-05-22T22:03:25.325Z,99378.78
2023-05-22T22:07:28.404Z,99383.69
2023-05-22T22:11:31.460Z,99378.59
2023-05-22T22:15:36.779Z,99371.75
2023-05-22T22:19:41.754Z,99375.63
2023-05-22T22:23:44.768Z,99375.09
2023-05-22T22:27:47.824Z,99369.28
2023-05-22T22:31:52.934Z,99379.28
2023-05-22T22:35:56.402Z,99387.47
2023-05-22T22:39:59.459Z,99392.16
2023-05-22T22:44:02.466Z,99382.75
2023-05-22T22:48:07.041Z,99382.22
2023-05-22T22:52:10.258Z,99378.94
2023-05-22T22:56:13.455Z,99367.81
2023-05-22T23:00:17.214Z,99368.25
2023-05-22T23:04:21.975Z,99372.28
2023-05-22T23:08:25.297Z,99365.53
2023-05-22T23:12:28.327Z,99367.59
2023-05-22T23:16:35.083Z,99357.97
2023-05-22T23:20:39.610Z,99359.00
2023-05-22T23:24:42.679Z,99357.47
2023-05-22T23:28:45.751Z,99355.91
2023-05-22T23:32:48.809Z,99359.66
2023-05-22T23:36:53.272Z,99357.06
2023-05-22T23:40:56.331Z,99353.59
2023-05-22T23:44:59.357Z,99345.81
2023-05-22T23:49:02.455Z,99334.41
2023-05-22T23:53:07.012Z,99338.94
2023-05-22T23:57:10.564Z,99340.03
